createdAt,value
2019-05-19T00:00:36.529Z,97579.01
2019-05-19T00:03:05.093Z,97576.09
2019-05-19T00:05:33.654Z,97576.42
2019-05-19T00:08:02.141Z,97573.27
2019-05-19T00:10:30.637Z,97566.79
2019-05-19T00:12:59.108Z,97563.83
2019-05-19T00:15:27.616Z,97570.14
2019-05-19T00:17:56.081Z,97569.62
2019-05-19T00:20:24.590Z,97571.62
2019-05-19T00:22:53.069Z,97568.56
2019-05-19T00:25:21.592Z,97571.84
2019-05-19T00:27:50.053Z,97569.75
2019-05-19T00:30:18.712Z,97569.70
2019-05-19T00:32:47.194Z,97571.83
2019-05-19T00:35:15.782Z,97572.81
2019-05-19T00:37:44.267Z,97576.98
2019-05-19T00:40:13.103Z,97571.92
2019-05-19T00:42:41.663Z,97574.54
2019-05-19T00:45:11.621Z,97575.78
2019-05-19T00:47:40.194Z,97584.92
2019-05-19T00:50:09.910Z,97581.77
2019-05-19T00:52:38.471Z,97582.97
2019-05-19T00:55:07.297Z,97585.87
2019-05-19T00:57:36.748Z,97584.50
2019-05-19T01:00:07.748Z,97581.94
2019-05-19T01:02:36.334Z,97580.73
2019-05-19T01:05:07.927Z,97578.31
2019-05-19T01:07:36.677Z,97573.74
2019-05-19T01:10:07.611Z,97575.67
2019-05-19T01:12:36.162Z,97577.27
2019-05-19T01:15:07.078Z,97577.50
2019-05-19T01:17:35.551Z,97572.36
2019-05-19T01:20:08.000Z,97572.40
2019-05-19T01:22:36.476Z,97573.20
2019-05-19T01:25:09.396Z,97572.55
2019-05-19T01:27:37.872Z,97572.96
2019-05-19T01:30:11.101Z,97572.81
2019-05-19T01:32:39.649Z,97575.88
2019-05-19T01:35:08.276Z,97567.22
2019-05-19T01:37:36.742Z,97561.23
2019-05-19T01:40:08.962Z,97564.01
2019-05-19T01:42:37.462Z,97559.52
2019-05-19T01:45:07.478Z,97553.95
2019-05-19T01:47:35.983Z,97550.80
2019-05-19T01:50:22.722Z,97557.33
2019-05-19T01:52:37.598Z,97555.45
2019-05-19T01:55:09.342Z,97551.22
2019-05-19T01:57:37.860Z,97553.16
2019-05-19T02:00:08.142Z,97554.83
2019-05-19T02:02:36.754Z,97555.53
2019-05-19T02:05:06.803Z,97555.53
2019-05-19T02:07:35.297Z,97552.02
2019-05-19T02:10:07.582Z,97550.33
2019-05-19T02:12:36.072Z,97549.59
2019-05-19T02:15:06.548Z,97550.80
2019-05-19T02:17:35.051Z,97540.83
2019-05-19T02:20:05.265Z,97541.97
2019-05-19T02:22:34.857Z,97538.95
2019-05-19T02:25:03.708Z,97542.94
2019-05-19T02:27:32.315Z,97543.33
2019-05-19T02:30:00.765Z,97548.88
2019-05-19T02:32:29.257Z,97541.86
2019-05-19T02:34:57.778Z,97541.19
2019-05-19T02:37:26.255Z,97540.68
2019-05-19T02:39:54.732Z,97547.75
2019-05-19T02:42:25.174Z,97554.06
2019-05-19T02:44:56.202Z,97553.50
2019-05-19T02:47:26.158Z,97555.67
2019-05-19T02:49:57.070Z,97558.14
2019-05-19T02:52:26.990Z,97560.92
2019-05-19T02:54:56.416Z,97566.82
2019-05-19T02:57:44.371Z,97556.99
2019-05-19T03:00:14.091Z,97560.93
2019-05-19T03:02:42.577Z,97559.98
2019-05-19T03:05:11.244Z,97563.80
2019-05-19T03:07:39.720Z,97562.74
2019-05-19T03:10:09.537Z,97574.95
2019-05-19T03:12:38.028Z,97565.32
2019-05-19T03:15:06.933Z,97568.31
2019-05-19T03:17:35.414Z,97573.94
2019-05-19T03:20:05.245Z,97572.06
2019-05-19T03:22:33.712Z,97578.19
2019-05-19T03:25:02.209Z,97570.41
2019-05-19T03:27:30.685Z,97568.97
2019-05-19T03:30:00.817Z,97570.00
2019-05-19T03:32:36.913Z,97573.44
2019-05-19T03:35:05.973Z,97570.86
2019-05-19T03:37:34.468Z,97569.41
2019-05-19T03:40:04.655Z,97571.94
2019-05-19T03:42:33.165Z,97569.20
2019-05-19T03:45:01.639Z,97574.46
2019-05-19T03:47:30.117Z,97568.47
2019-05-19T03:49:58.633Z,97566.47
2019-05-19T03:52:27.164Z,97566.80
2019-05-19T03:54:55.628Z,97568.07
2019-05-19T03:57:24.096Z,97568.75
2019-05-19T03:59:52.602Z,97569.91
2019-05-19T04:02:21.115Z,97561.25
2019-05-19T04:04:49.576Z,97566.07
2019-05-19T04:07:18.081Z,97561.95
2019-05-19T04:09:46.558Z,97559.86
2019-05-19T04:12:15.119Z,97560.48
2019-05-19T04:14:43.609Z,97556.97
2019-05-19T04:17:12.103Z,97559.73
2019-05-19T04:19:40.582Z,97559.67
2019-05-19T04:22:09.060Z,97561.80
2019-05-19T04:24:40.628Z,97555.55
2019-05-19T04:27:09.140Z,97555.47
2019-05-19T04:29:39.566Z,97546.80
2019-05-19T04:32:07.865Z,97546.50
2019-05-19T04:34:36.306Z,97544.49
2019-05-19T04:37:04.989Z,97544.91
2019-05-19T04:39:33.459Z,97544.54
2019-05-19T04:42:01.923Z,97547.40
2019-05-19T04:44:30.412Z,97555.43
2019-05-19T04:46:58.951Z,97544.61
2019-05-19T04:49:27.442Z,97547.02
2019-05-19T04:52:05.869Z,97549.34
2019-05-19T04:54:26.141Z,97550.34
2019-05-19T04:56:54.690Z,97542.62
2019-05-19T04:59:23.193Z,97550.23
2019-05-19T05:01:51.676Z,97541.64
2019-05-19T05:04:20.231Z,97543.45
2019-05-19T05:06:48.706Z,97544.01
2019-05-19T05:09:17.206Z,97543.45
2019-05-19T05:11:45.674Z,97541.19
2019-05-19T05:14:14.166Z,97545.38
2019-05-19T05:16:42.640Z,97548.95
2019-05-19T05:19:11.144Z,97546.62
2019-05-19T05:21:39.673Z,97547.05
2019-05-19T05:24:08.111Z,97542.22
2019-05-19T05:26:36.626Z,97534.58
2019-05-19T05:29:05.126Z,97536.89
2019-05-19T05:31:33.631Z,97535.56
2019-05-19T05:34:02.100Z,97535.81
2019-05-19T05:36:30.631Z,97537.02
2019-05-19T05:38:59.109Z,97532.94
2019-05-19T05:41:27.620Z,97535.84
2019-05-19T05:43:56.103Z,97536.39
2019-05-19T05:46:24.606Z,97537.98
2019-05-19T05:48:53.225Z,97540.63
2019-05-19T05:51:21.705Z,97540.83
2019-05-19T05:53:50.198Z,97539.17
2019-05-19T05:56:18.671Z,97541.81
2019-05-19T05:58:47.167Z,97533.75
2019-05-19T06:01:15.643Z,97533.80
2019-05-19T06:03:44.156Z,97538.42
2019-05-19T06:06:12.640Z,97536.61
2019-05-19T06:08:41.129Z,97537.17
2019-05-19T06:11:09.665Z,97530.31
2019-05-19T06:13:38.171Z,97528.52
2019-05-19T06:16:06.647Z,97526.98
2019-05-19T06:18:35.143Z,97524.94
2019-05-19T06:21:03.624Z,97528.66
2019-05-19T06:23:32.105Z,97527.50
2019-05-19T06:26:00.602Z,97526.12
2019-05-19T06:28:29.089Z,97528.71
2019-05-19T06:30:57.569Z,97523.58
2019-05-19T06:33:26.059Z,97518.42
2019-05-19T06:35:54.540Z,97522.24
2019-05-19T06:38:23.043Z,97522.16
2019-05-19T06:40:51.527Z,97524.09
2019-05-19T06:43:19.999Z,97525.58
2019-05-19T06:45:48.472Z,97525.70
2019-05-19T06:48:16.977Z,97524.13
2019-05-19T06:50:45.447Z,97521.52
2019-05-19T06:53:14.841Z,97524.36
2019-05-19T06:55:43.805Z,97529.76
2019-05-19T06:58:12.305Z,97530.09
2019-05-19T07:00:40.934Z,97523.73
2019-05-19T07:03:09.456Z,97516.51
2019-05-19T07:05:37.940Z,97514.07
2019-05-19T07:08:06.444Z,97509.16
2019-05-19T07:10:34.947Z,97517.44
2019-05-19T07:13:03.461Z,97511.30
2019-05-19T07:15:32.014Z,97506.80
2019-05-19T07:18:00.505Z,97505.00
2019-05-19T07:20:28.975Z,97500.13
2019-05-19T07:22:57.506Z,97501.00
2019-05-19T07:25:25.979Z,97499.45
2019-05-19T07:27:55.029Z,97505.43
2019-05-19T07:30:23.514Z,97497.84
2019-05-19T07:32:51.987Z,97498.20
2019-05-19T07:35:20.481Z,97498.32
2019-05-19T07:37:48.962Z,97505.11
2019-05-19T07:40:17.569Z,97507.25
2019-05-19T07:42:46.054Z,97501.83
2019-05-19T07:45:14.864Z,97502.14
2019-05-19T07:47:43.361Z,97501.97
2019-05-19T07:50:12.005Z,97499.20
2019-05-19T07:52:40.508Z,97493.09
2019-05-19T07:55:09.129Z,97493.45
2019-05-19T07:57:37.690Z,97497.36
2019-05-19T08:00:26.959Z,97494.78
2019-05-19T08:02:55.481Z,97499.31
2019-05-19T08:05:23.945Z,97497.34
2019-05-19T08:07:52.452Z,97496.02
2019-05-19T08:10:20.927Z,97490.45
2019-05-19T08:12:49.431Z,97487.03
2019-05-19T08:15:18.248Z,97489.94
2019-05-19T08:17:46.757Z,97484.52
2019-05-19T08:20:15.478Z,97487.35
2019-05-19T08:22:43.963Z,97482.55
2019-05-19T08:25:12.783Z,97483.91
2019-05-19T08:27:41.290Z,97485.54
2019-05-19T08:30:11.016Z,97478.63
2019-05-19T08:32:39.576Z,97489.55
2019-05-19T08:35:08.514Z,97486.63
2019-05-19T08:37:36.983Z,97476.84
2019-05-19T08:40:05.834Z,97481.08
2019-05-19T08:42:34.393Z,97476.96
2019-05-19T08:45:03.272Z,97476.19
2019-05-19T08:47:31.732Z,97470.91
2019-05-19T08:50:00.241Z,97471.06
2019-05-19T08:52:28.706Z,97466.25
2019-05-19T08:54:57.192Z,97460.22
2019-05-19T08:57:25.701Z,97467.66
2019-05-19T08:59:54.165Z,97469.11
2019-05-19T09:02:22.650Z,97464.83
2019-05-19T09:04:51.120Z,97461.95
2019-05-19T09:07:19.670Z,97451.80
2019-05-19T09:09:48.179Z,97456.00
2019-05-19T09:12:16.704Z,97457.78
2019-05-19T09:14:45.207Z,97456.97
2019-05-19T09:17:14.301Z,97455.73
2019-05-19T09:19:42.756Z,97462.06
2019-05-19T09:22:12.341Z,97450.32
2019-05-19T09:24:40.829Z,97452.24
2019-05-19T09:27:09.399Z,97451.40
2019-05-19T09:29:37.893Z,97450.00
2019-05-19T09:32:06.434Z,97447.75
2019-05-19T09:34:34.986Z,97455.75
2019-05-19T09:37:03.518Z,97443.76
2019-05-19T09:39:31.997Z,97442.58
2019-05-19T09:42:00.463Z,97441.05
2019-05-19T09:44:28.987Z,97447.23
2019-05-19T09:47:00.356Z,97445.34
2019-05-19T09:49:35.545Z,97439.44
2019-05-19T09:52:06.144Z,97437.09
2019-05-19T09:54:44.724Z,97431.23
2019-05-19T09:57:04.970Z,97436.85
2019-05-19T09:59:33.506Z,97438.23
2019-05-19T10:02:01.976Z,97435.84
2019-05-19T10:04:30.548Z,97428.66
2019-05-19T10:06:59.149Z,97424.74
2019-05-19T10:09:40.017Z,97427.19
2019-05-19T10:12:09.551Z,97424.29
2019-05-19T10:14:38.180Z,97413.20
2019-05-19T10:17:06.675Z,97413.05
2019-05-19T10:19:35.219Z,97404.67
2019-05-19T10:22:03.857Z,97417.98
2019-05-19T10:24:32.433Z,97420.84
2019-05-19T10:27:00.889Z,97417.78
2019-05-19T10:29:29.387Z,97412.11
2019-05-19T10:31:57.861Z,97404.94
2019-05-19T10:34:26.424Z,97410.43
2019-05-19T10:36:54.900Z,97408.52
2019-05-19T10:39:23.370Z,97401.56
2019-05-19T10:41:51.866Z,97408.47
2019-05-19T10:44:20.401Z,97406.64
2019-05-19T10:46:49.005Z,97405.68
2019-05-19T10:49:17.537Z,97400.56
2019-05-19T10:51:46.035Z,97391.98
2019-05-19T10:54:14.509Z,97391.89
2019-05-19T10:56:42.983Z,97392.56
2019-05-19T10:59:13.761Z,97384.42
2019-05-19T11:01:42.228Z,97388.97
2019-05-19T11:04:10.741Z,97387.03
2019-05-19T11:06:39.223Z,97386.25
2019-05-19T11:09:08.969Z,97388.59
2019-05-19T11:11:37.505Z,97378.66
2019-05-19T11:14:06.161Z,97374.67
2019-05-19T11:16:34.682Z,97377.20
2019-05-19T11:19:03.182Z,97374.80
2019-05-19T11:21:31.673Z,97380.93
2019-05-19T11:24:00.153Z,97375.91
2019-05-19T11:26:28.644Z,97373.89
2019-05-19T11:28:57.192Z,97369.20
2019-05-19T11:31:25.705Z,97368.20
2019-05-19T11:33:55.274Z,97372.52
2019-05-19T11:36:23.760Z,97363.92
2019-05-19T11:38:52.231Z,97367.16
2019-05-19T11:41:20.739Z,97367.08
2019-05-19T11:43:49.220Z,97359.58
2019-05-19T11:46:17.687Z,97369.59
2019-05-19T11:48:46.183Z,97355.64
2019-05-19T11:51:14.665Z,97353.83
2019-05-19T11:53:43.134Z,97348.20
2019-05-19T11:56:11.838Z,97350.17
2019-05-19T11:58:40.359Z,97345.50
2019-05-19T12:01:08.912Z,97347.30
2019-05-19T12:03:37.373Z,97340.55
2019-05-19T12:06:05.873Z,97346.19
2019-05-19T12:08:34.344Z,97336.33
2019-05-19T12:11:02.868Z,97330.72
2019-05-19T12:13:34.964Z,97324.36
2019-05-19T12:16:02.608Z,97319.13
2019-05-19T12:18:38.191Z,97325.30
2019-05-19T12:21:06.686Z,97314.06
2019-05-19T12:23:35.226Z,97317.84
2019-05-19T12:26:04.695Z,97314.84
2019-05-19T12:28:33.166Z,97308.17
2019-05-19T12:31:01.660Z,97308.69
2019-05-19T12:33:30.120Z,97308.22
2019-05-19T12:35:58.624Z,97302.92
2019-05-19T12:38:27.123Z,97296.11
2019-05-19T12:40:55.612Z,97307.82
2019-05-19T12:43:24.090Z,97312.36
2019-05-19T12:45:52.681Z,97314.09
2019-05-19T12:48:21.248Z,97310.48
2019-05-19T12:50:49.825Z,97319.85
2019-05-19T12:53:18.488Z,97318.33
2019-05-19T12:55:47.030Z,97314.97
2019-05-19T12:58:15.635Z,97316.95
2019-05-19T13:00:44.192Z,97317.86
2019-05-19T13:03:14.167Z,97314.26
2019-05-19T13:05:42.651Z,97319.13
2019-05-19T13:08:11.729Z,97326.05
2019-05-19T13:10:40.252Z,97326.77
2019-05-19T13:13:08.747Z,97332.50
2019-05-19T13:15:37.243Z,97363.39
2019-05-19T13:18:05.726Z,97365.34
2019-05-19T13:20:34.299Z,97373.20
2019-05-19T13:23:02.795Z,97378.05
2019-05-19T13:25:31.265Z,97389.80
2019-05-19T13:27:59.755Z,97392.13
2019-05-19T13:30:28.233Z,97403.95
2019-05-19T13:32:56.720Z,97406.71
2019-05-19T13:35:25.197Z,97412.91
2019-05-19T13:37:53.745Z,97410.16
2019-05-19T13:40:22.213Z,97421.43
2019-05-19T13:42:50.742Z,97427.53
2019-05-19T13:45:19.832Z,97432.45
2019-05-19T13:47:48.298Z,97434.63
2019-05-19T13:50:17.357Z,97438.63
2019-05-19T13:52:45.820Z,97437.34
2019-05-19T13:55:14.409Z,97444.97
2019-05-19T13:57:42.877Z,97445.80
2019-05-19T14:00:12.318Z,97449.95
2019-05-19T14:02:40.833Z,97443.40
2019-05-19T14:05:09.454Z,97443.19
2019-05-19T14:07:37.996Z,97444.62
2019-05-19T14:10:08.042Z,97441.61
2019-05-19T14:12:36.624Z,97438.53
2019-05-19T14:15:06.540Z,97438.30
2019-05-19T14:17:36.141Z,97421.58
2019-05-19T14:20:09.538Z,97412.66
2019-05-19T14:22:38.307Z,97415.49
2019-05-19T14:25:07.634Z,97415.84
2019-05-19T14:27:36.100Z,97403.03
2019-05-19T14:30:06.546Z,97405.27
2019-05-19T14:32:35.015Z,97403.41
2019-05-19T14:35:04.197Z,97398.09
2019-05-19T14:37:32.692Z,97402.08
2019-05-19T14:40:01.181Z,97402.08
2019-05-19T14:42:47.742Z,97395.81
2019-05-19T14:45:17.746Z,97393.05
2019-05-19T14:47:46.268Z,97379.91
2019-05-19T14:50:15.283Z,97387.05
2019-05-19T14:52:43.756Z,97374.55
2019-05-19T14:55:12.598Z,97375.54
2019-05-19T14:57:44.852Z,97375.28
2019-05-19T15:00:12.512Z,97371.77
2019-05-19T15:02:41.018Z,97365.85
2019-05-19T15:05:10.046Z,97362.64
2019-05-19T15:07:38.522Z,97356.29
2019-05-19T15:10:07.178Z,97358.67
2019-05-19T15:12:35.736Z,97353.19
2019-05-19T15:15:06.833Z,97355.12
2019-05-19T15:17:35.303Z,97364.30
2019-05-19T15:20:07.516Z,97362.97
2019-05-19T15:22:35.996Z,97348.17
2019-05-19T15:25:05.459Z,97357.45
2019-05-19T15:27:34.001Z,97354.92
2019-05-19T15:30:12.216Z,97361.59
2019-05-19T15:32:32.736Z,97353.63
2019-05-19T15:35:01.405Z,97361.39
2019-05-19T15:37:29.908Z,97356.86
2019-05-19T15:39:59.558Z,97353.14
2019-05-19T15:42:39.813Z,97356.69
2019-05-19T15:45:08.966Z,97362.67
2019-05-19T15:47:39.117Z,97354.02
2019-05-19T15:50:08.181Z,97357.36
2019-05-19T15:52:36.726Z,97351.05
2019-05-19T15:55:06.645Z,97354.65
2019-05-19T15:57:35.410Z,97357.59
2019-05-19T16:00:07.455Z,97357.14
2019-05-19T16:02:36.150Z,97362.94
2019-05-19T16:05:06.696Z,97355.61
2019-05-19T16:07:35.252Z,97358.04
2019-05-19T16:10:06.176Z,97364.98
2019-05-19T16:12:34.646Z,97364.51
2019-05-19T16:15:03.795Z,97366.11
2019-05-19T16:17:32.294Z,97362.66
2019-05-19T16:20:00.782Z,97362.02
2019-05-19T16:22:29.299Z,97359.83
2019-05-19T16:24:57.830Z,97358.63
2019-05-19T16:27:26.390Z,97354.22
2019-05-19T16:29:54.892Z,97350.05
2019-05-19T16:32:23.370Z,97348.34
2019-05-19T16:34:51.881Z,97352.59
2019-05-19T16:37:20.358Z,97351.14
2019-05-19T16:39:48.878Z,97359.16
2019-05-19T16:42:17.365Z,97353.04
2019-05-19T16:44:45.878Z,97362.17
2019-05-19T16:47:14.383Z,97354.55
2019-05-19T16:49:42.862Z,97361.94
2019-05-19T16:52:11.374Z,97352.41
2019-05-19T16:54:42.733Z,97366.31
2019-05-19T16:57:12.292Z,97369.48
2019-05-19T16:59:40.770Z,97371.51
2019-05-19T17:02:09.283Z,97363.09
2019-05-19T17:04:37.832Z,97366.82
2019-05-19T17:07:06.298Z,97367.23
2019-05-19T17:09:34.775Z,97366.89
2019-05-19T17:12:03.280Z,97364.41
2019-05-19T17:14:33.394Z,97361.78
2019-05-19T17:17:01.897Z,97367.03
2019-05-19T17:19:30.384Z,97370.72
2019-05-19T17:21:58.924Z,97370.91
2019-05-19T17:24:27.395Z,97368.83
2019-05-19T17:26:55.867Z,97369.26
2019-05-19T17:29:24.362Z,97376.47
2019-05-19T17:32:05.316Z,97376.92
2019-05-19T17:34:23.069Z,97376.33
2019-05-19T17:36:51.539Z,97371.36
2019-05-19T17:39:20.020Z,97371.34
2019-05-19T17:41:48.495Z,97369.02
2019-05-19T17:44:17.075Z,97367.84
2019-05-19T17:46:45.570Z,97377.05
2019-05-19T17:49:14.080Z,97369.41
2019-05-19T17:51:42.560Z,97370.63
2019-05-19T17:54:11.051Z,97369.02
2019-05-19T17:56:41.169Z,97375.28
2019-05-19T17:59:16.672Z,97368.78
2019-05-19T18:01:39.878Z,97371.48
2019-05-19T18:04:08.383Z,97375.66
2019-05-19T18:06:36.870Z,97376.70
2019-05-19T18:09:06.019Z,97378.53
2019-05-19T18:11:34.538Z,97387.44
2019-05-19T18:14:03.047Z,97384.64
2019-05-19T18:16:31.531Z,97380.98
2019-05-19T18:19:00.010Z,97380.41
2019-05-19T18:21:28.528Z,97377.30
2019-05-19T18:23:57.030Z,97372.74
2019-05-19T18:26:25.492Z,97363.36
2019-05-19T18:28:53.966Z,97360.62
2019-05-19T18:31:22.540Z,97342.67
2019-05-19T18:33:53.101Z,97348.47
2019-05-19T18:36:21.583Z,97351.70
2019-05-19T18:38:50.095Z,97358.81
2019-05-19T18:41:18.671Z,97356.77
2019-05-19T18:43:47.170Z,97355.89
2019-05-19T18:46:15.688Z,97349.06
2019-05-19T18:48:44.172Z,97358.81
2019-05-19T18:51:12.677Z,97356.67
2019-05-19T18:53:41.157Z,97355.63
2019-05-19T18:56:09.738Z,97354.00
2019-05-19T18:58:38.241Z,97359.16
2019-05-19T19:01:06.823Z,97358.05
2019-05-19T19:03:35.372Z,97354.59
2019-05-19T19:06:04.840Z,97352.72
2019-05-19T19:08:33.332Z,97354.85
2019-05-19T19:11:01.808Z,97357.80
2019-05-19T19:13:30.319Z,97355.86
2019-05-19T19:15:58.862Z,97357.41
2019-05-19T19:18:27.343Z,97366.89
2019-05-19T19:20:55.836Z,97359.86
2019-05-19T19:23:25.568Z,97354.08
2019-05-19T19:25:56.783Z,97351.19
2019-05-19T19:28:24.628Z,97351.45
2019-05-19T19:30:58.719Z,97347.89
2019-05-19T19:33:30.202Z,97359.79
2019-05-19T19:36:02.438Z,97349.58
2019-05-19T19:38:40.126Z,97348.56
2019-05-19T19:41:08.706Z,97349.67
2019-05-19T19:43:39.993Z,97343.03
2019-05-19T19:46:10.638Z,97340.13
2019-05-19T19:48:39.171Z,97341.67
2019-05-19T19:51:07.718Z,97344.08
2019-05-19T19:53:36.301Z,97341.89
2019-05-19T19:56:05.288Z,97334.31
2019-05-19T19:58:33.847Z,97336.98
2019-05-19T20:01:02.345Z,97331.99
2019-05-19T20:03:30.918Z,97330.44
2019-05-19T20:06:02.236Z,97331.92
2019-05-19T20:08:33.713Z,97334.53
2019-05-19T20:11:01.664Z,97332.73
2019-05-19T20:13:30.273Z,97315.24
2019-05-19T20:15:58.758Z,97315.24
2019-05-19T20:18:29.164Z,97315.34
2019-05-19T20:20:57.667Z,97313.80
2019-05-19T20:23:26.143Z,97312.97
2019-05-19T20:25:54.617Z,97324.94
2019-05-19T20:28:23.113Z,97314.11
2019-05-19T20:30:51.619Z,97311.12
2019-05-19T20:33:20.159Z,97310.53
2019-05-19T20:35:48.662Z,97310.53
2019-05-19T20:38:17.226Z,97312.53
2019-05-19T20:40:45.723Z,97318.34
2019-05-19T20:43:14.199Z,97318.34
2019-05-19T20:45:43.094Z,97314.62
2019-05-19T20:48:16.141Z,97313.40
2019-05-19T20:50:44.662Z,97313.15
2019-05-19T20:53:15.723Z,97312.39
2019-05-19T20:55:44.222Z,97317.22
2019-05-19T20:58:14.241Z,97310.13
2019-05-19T21:00:50.376Z,97317.97
2019-05-19T21:03:14.476Z,97319.92
2019-05-19T21:05:42.979Z,97315.64
2019-05-19T21:08:11.468Z,97315.97
2019-05-19T21:10:39.945Z,97319.98
2019-05-19T21:13:08.452Z,97310.59
2019-05-19T21:15:36.972Z,97319.98
2019-05-19T21:18:05.513Z,97319.38
2019-05-19T21:20:37.033Z,97324.06
2019-05-19T21:23:05.816Z,97329.25
2019-05-19T21:25:34.887Z,97324.38
2019-05-19T21:28:03.395Z,97320.14
2019-05-19T21:30:31.949Z,97326.25
2019-05-19T21:33:00.453Z,97325.32
2019-05-19T21:35:28.934Z,97321.35
2019-05-19T21:37:57.452Z,97325.92
2019-05-19T21:40:25.925Z,97330.48
2019-05-19T21:42:54.471Z,97331.93
2019-05-19T21:45:23.031Z,97330.48
2019-05-19T21:47:51.514Z,97326.48
2019-05-19T21:50:20.093Z,97326.48
2019-05-19T21:52:48.600Z,97320.23
2019-05-19T21:55:17.197Z,97313.20
2019-05-19T21:57:45.755Z,97316.64
2019-05-19T22:00:15.074Z,97314.00
2019-05-19T22:02:43.579Z,97324.08
2019-05-19T22:05:12.319Z,97316.38
2019-05-19T22:07:57.489Z,97318.77
2019-05-19T22:10:26.092Z,97314.38
2019-05-19T22:12:54.575Z,97314.93
2019-05-19T22:15:23.062Z,97309.28
2019-05-19T22:17:51.627Z,97306.17
2019-05-19T22:20:20.207Z,97303.75
2019-05-19T22:22:49.622Z,97295.55
2019-05-19T22:25:18.110Z,97281.38
2019-05-19T22:27:46.599Z,97276.61
2019-05-19T22:30:15.500Z,97272.41
2019-05-19T22:32:43.983Z,97261.27
2019-05-19T22:35:15.236Z,97259.47
2019-05-19T22:37:43.738Z,97265.97
2019-05-19T22:40:12.612Z,97261.66
2019-05-19T22:42:41.183Z,97264.17
2019-05-19T22:45:10.506Z,97262.41
2019-05-19T22:47:39.029Z,97264.79
2019-05-19T22:50:08.575Z,97258.03
2019-05-19T22:52:37.058Z,97260.99
2019-05-19T22:55:09.299Z,97251.61
2019-05-19T22:57:37.772Z,97241.80
2019-05-19T23:00:11.228Z,97249.01
2019-05-19T23:02:39.743Z,97242.30
2019-05-19T23:05:09.699Z,97247.06
2019-05-19T23:07:38.213Z,97245.67
2019-05-19T23:10:07.712Z,97239.61
2019-05-19T23:12:36.314Z,97227.69
2019-05-19T23:15:09.324Z,97225.90
2019-05-19T23:17:37.797Z,97231.80
2019-05-19T23:20:06.518Z,97218.34
2019-05-19T23:22:35.006Z,97219.45
2019-05-19T23:25:04.375Z,97219.20
2019-05-19T23:27:32.849Z,97217.99
2019-05-19T23:30:01.364Z,97219.69
2019-05-19T23:32:29.830Z,97218.79
2019-05-19T23:34:58.332Z,97219.95
2019-05-19T23:37:26.810Z,97221.49
2019-05-19T23:39:55.346Z,97228.09
2019-05-19T23:42:23.802Z,97223.08
2019-05-19T23:44:52.273Z,97226.09
2019-05-19T23:47:20.776Z,97214.31
2019-05-19T23:49:49.252Z,97213.50
2019-05-19T23:52:17.760Z,97210.69
2019-05-19T23:54:46.237Z,97209.31
2019-05-19T23:57:14.743Z,97197.32
2019-05-19T23:59:43.214Z,97189.74
